F/V Cote D'ambre — FPEY — position and weather

sailwx.info

Track history (hours):
 
Tides and Currents Weather Stations Pressure Air Temp Water Temp Dewpoint Dewpoint Depression Visibility Wind Speed Wind Dir Waves Ship Positions

F/V Cote D'ambre

Last reported at 2014-Nov-27 04:31 UTC. Time now 2014-Nov-28 18:09 UTC.
Position N 47°32' W 003°24'.

Length 16 m; draft 4 m.

Type: Fishing. MMSI: 227128800.

Date/timePositionNaut miles runAvg speedWind from/ knotsBaromVisibWave heightAir tempDewpointWater temp
2014-Nov-27 04:31N 47°32' W 003°24'8 8.1
2014-Nov-27 03:33N 47°40' W 003°22'4 3.8
2014-Nov-27 02:33N 47°44' W 003°22'1 1.1
2014-Nov-27 01:33N 47°43' W 003°22'7 7.0
2014-Nov-27 00:33N 47°36' W 003°25'5 2.2
2014-Nov-26 22:33N 47°32' W 003°27'3 0.1
2014-Nov-25 04:15N 47°32' W 003°23'6 8.2
2014-Nov-25 03:33N 47°38' W 003°22'6 6.0
2014-Nov-25 02:33N 47°44' W 003°22'3 2.9
2014-Nov-25 01:34N 47°41' W 003°22'11 3.5
2014-Nov-24 22:30N 47°31' W 003°27'1 0.3
2014-Nov-24 19:33N 47°32' W 003°27'1 0.2
2014-Nov-24 15:05N 47°33' W 003°27'2 3.1
2014-Nov-24 14:30N 47°31' W 003°27'1 0.4
2014-Nov-24 11:32N 47°32' W 003°27'5 1.0
2014-Nov-24 06:33N 47°35' W 003°22'9 8.5
2014-Nov-24 05:33N 47°44' W 003°22'0 0.0
2014-Nov-22 03:31N 47°44' W 003°22'0 0.1
2014-Nov-22 02:32N 47°44' W 003°22'0 0.0
2014-Nov-22 01:32N 47°44' W 003°22'0 0.0
2014-Nov-22 00:33N 47°44' W 003°22'7 0.2
2014-Nov-20 04:30N 47°36' W 003°22'7 7.6
2014-Nov-20 03:32N 47°44' W 003°22'0 0.2
2014-Nov-20 02:31N 47°44' W 003°22'6 5.9
2014-Nov-20 01:34N 47°38' W 003°22'10 0.2
2014-Nov-18 05:06N 47°28' W 003°23'5 8.4
2014-Nov-18 04:33N 47°33' W 003°22'9 8.7
2014-Nov-18 03:33N 47°41' W 003°22'2 2.3
2014-Nov-18 02:33N 47°44' W 003°22'4 4.2
2014-Nov-18 01:34N 47°40' W 003°22'7 7.4
2014-Nov-18 00:34N 47°32' W 003°23'5 0.3
2014-Nov-17 05:33N 47°27' W 003°22'8 7.9
2014-Nov-17 04:33N 47°35' W 003°23'  
Track history (hours):
 
Tides and Currents Weather Stations Pressure Air Temp Water Temp Dewpoint Dewpoint Depression Visibility Wind Speed Wind Dir Waves Ship Positions

F/V Cote D'ambre

Last reported at 2014-Nov-27 04:31 UTC. Time now 2014-Nov-28 18:09 UTC.
Position N 47°32' W 003°24'.

Length 16 m; draft 4 m.

Type: Fishing. MMSI: 227128800.

Date/timePositionNaut miles runAvg speedWind from/ knotsBaromVisibWave heightAir tempDewpointWater temp
2014-Nov-27 04:31N 47°32' W 003°24'8 8.1
2014-Nov-27 03:33N 47°40' W 003°22'4 3.8
2014-Nov-27 02:33N 47°44' W 003°22'1 1.1
2014-Nov-27 01:33N 47°43' W 003°22'7 7.0
2014-Nov-27 00:33N 47°36' W 003°25'5 2.2
2014-Nov-26 22:33N 47°32' W 003°27'3 0.1
2014-Nov-25 04:15N 47°32' W 003°23'6 8.2
2014-Nov-25 03:33N 47°38' W 003°22'6 6.0
2014-Nov-25 02:33N 47°44' W 003°22'3 2.9
2014-Nov-25 01:34N 47°41' W 003°22'11 3.5
2014-Nov-24 22:30N 47°31' W 003°27'1 0.3
2014-Nov-24 19:33N 47°32' W 003°27'1 0.2
2014-Nov-24 15:05N 47°33' W 003°27'2 3.1
2014-Nov-24 14:30N 47°31' W 003°27'1 0.4
2014-Nov-24 11:32N 47°32' W 003°27'5 1.0
2014-Nov-24 06:33N 47°35' W 003°22'9 8.5
2014-Nov-24 05:33N 47°44' W 003°22'0 0.0
2014-Nov-22 03:31N 47°44' W 003°22'0 0.1
2014-Nov-22 02:32N 47°44' W 003°22'0 0.0
2014-Nov-22 01:32N 47°44' W 003°22'0 0.0
2014-Nov-22 00:33N 47°44' W 003°22'7 0.2
2014-Nov-20 04:30N 47°36' W 003°22'7 7.6
2014-Nov-20 03:32N 47°44' W 003°22'0 0.2
2014-Nov-20 02:31N 47°44' W 003°22'6 5.9
2014-Nov-20 01:34N 47°38' W 003°22'10 0.2
2014-Nov-18 05:06N 47°28' W 003°23'5 8.4
2014-Nov-18 04:33N 47°33' W 003°22'9 8.7
2014-Nov-18 03:33N 47°41' W 003°22'2 2.3
2014-Nov-18 02:33N 47°44' W 003°22'4 4.2
2014-Nov-18 01:34N 47°40' W 003°22'7 7.4
2014-Nov-18 00:34N 47°32' W 003°23'5 0.3
2014-Nov-17 05:33N 47°27' W 003°22'8 7.9
2014-Nov-17 04:33N 47°35' W 003°23'  

Dump ship's entire track history